sensor_id;sensor_type;location;lat;lon;timestamp;P1;durP1;ratioP1;P2;durP2;ratioP2
8909;SDS011;4490;49.072;8.804;2023-06-26T00:00:19;7.57;;;6.88;;
8909;SDS011;4490;49.072;8.804;2023-06-26T00:02:44;8.17;;;6.87;;
8909;SDS011;4490;49.072;8.804;2023-06-26T00:05:10;8.20;;;7.10;;
8909;SDS011;4490;49.072;8.804;2023-06-26T00:07:36;7.75;;;6.88;;
8909;SDS011;4490;49.072;8.804;2023-06-26T00:10:02;8.55;;;7.18;;
8909;SDS011;4490;49.072;8.804;2023-06-26T00:12:29;7.90;;;7.13;;
8909;SDS011;4490;49.072;8.804;2023-06-26T00:14:55;7.20;;;6.50;;
8909;SDS011;4490;49.072;8.804;2023-06-26T00:17:20;7.95;;;7.20;;
8909;SDS011;4490;49.072;8.804;2023-06-26T00:19:46;7.57;;;6.87;;
8909;SDS011;4490;49.072;8.804;2023-06-26T00:22:12;8.03;;;7.23;;
8909;SDS011;4490;49.072;8.804;2023-06-26T00:24:38;7.43;;;6.73;;
8909;SDS011;4490;49.072;8.804;2023-06-26T00:27:03;7.20;;;6.50;;
8909;SDS011;4490;49.072;8.804;2023-06-26T00:29:29;7.33;;;6.63;;
8909;SDS011;4490;49.072;8.804;2023-06-26T00:31:55;6.97;;;6.27;;
8909;SDS011;4490;49.072;8.804;2023-06-26T00:34:20;7.40;;;6.70;;
8909;SDS011;4490;49.072;8.804;2023-06-26T00:36:46;11.97;;;6.70;;
8909;SDS011;4490;49.072;8.804;2023-06-26T00:39:11;8.13;;;7.10;;
8909;SDS011;4490;49.072;8.804;2023-06-26T00:41:37;10.53;;;7.67;;
8909;SDS011;4490;49.072;8.804;2023-06-26T00:44:03;9.33;;;8.20;;
8909;SDS011;4490;49.072;8.804;2023-06-26T00:46:29;9.17;;;8.27;;
8909;SDS011;4490;49.072;8.804;2023-06-26T00:48:55;9.87;;;8.83;;
8909;SDS011;4490;49.072;8.804;2023-06-26T00:51:24;9.43;;;8.50;;
8909;SDS011;4490;49.072;8.804;2023-06-26T00:53:50;8.70;;;7.90;;
8909;SDS011;4490;49.072;8.804;2023-06-26T00:56:17;9.80;;;8.80;;
8909;SDS011;4490;49.072;8.804;2023-06-26T00:58:45;9.43;;;8.47;;
8909;SDS011;4490;49.072;8.804;2023-06-26T01:01:11;9.30;;;8.20;;
8909;SDS011;4490;49.072;8.804;2023-06-26T01:03:41;8.07;;;7.27;;
8909;SDS011;4490;49.072;8.804;2023-06-26T01:06:07;8.47;;;7.50;;
8909;SDS011;4490;49.072;8.804;2023-06-26T01:08:36;9.43;;;8.43;;
8909;SDS011;4490;49.072;8.804;2023-06-26T01:11:03;9.07;;;8.10;;
8909;SDS011;4490;49.072;8.804;2023-06-26T01:13:29;9.10;;;8.13;;
8909;SDS011;4490;49.072;8.804;2023-06-26T01:15:55;9.40;;;8.37;;
8909;SDS011;4490;49.072;8.804;2023-06-26T01:18:25;9.73;;;7.73;;
8909;SDS011;4490;49.072;8.804;2023-06-26T01:20:52;9.87;;;8.20;;
8909;SDS011;4490;49.072;8.804;2023-06-26T01:23:20;8.83;;;7.93;;
8909;SDS011;4490;49.072;8.804;2023-06-26T01:28:32;8.87;;;7.73;;
8909;SDS011;4490;49.072;8.804;2023-06-26T01:31:00;9.73;;;8.53;;
8909;SDS011;4490;49.072;8.804;2023-06-26T01:33:27;11.07;;;8.37;;
8909;SDS011;4490;49.072;8.804;2023-06-26T01:35:53;9.03;;;7.80;;
8909;SDS011;4490;49.072;8.804;2023-06-26T01:38:20;10.07;;;8.23;;
8909;SDS011;4490;49.072;8.804;2023-06-26T01:40:48;9.40;;;8.43;;
8909;SDS011;4490;49.072;8.804;2023-06-26T01:46:06;9.83;;;8.63;;
8909;SDS011;4490;49.072;8.804;2023-06-26T01:51:21;10.30;;;8.47;;
8909;SDS011;4490;49.072;8.804;2023-06-26T01:53:52;8.97;;;8.07;;
8909;SDS011;4490;49.072;8.804;2023-06-26T01:56:20;10.20;;;8.40;;
8909;SDS011;4490;49.072;8.804;2023-06-26T01:58:48;9.20;;;8.20;;
8909;SDS011;4490;49.072;8.804;2023-06-26T02:01:19;8.53;;;7.73;;
8909;SDS011;4490;49.072;8.804;2023-06-26T02:03:45;9.57;;;7.93;;
8909;SDS011;4490;49.072;8.804;2023-06-26T02:06:12;10.07;;;8.77;;
8909;SDS011;4490;49.072;8.804;2023-06-26T02:08:38;9.03;;;8.17;;
8909;SDS011;4490;49.072;8.804;2023-06-26T02:11:03;10.20;;;8.90;;
8909;SDS011;4490;49.072;8.804;2023-06-26T02:13:29;8.30;;;7.50;;
8909;SDS011;4490;49.072;8.804;2023-06-26T02:15:54;9.47;;;7.53;;
8909;SDS011;4490;49.072;8.804;2023-06-26T02:18:20;8.93;;;7.93;;
8909;SDS011;4490;49.072;8.804;2023-06-26T02:20:49;8.73;;;7.80;;
8909;SDS011;4490;49.072;8.804;2023-06-26T02:23:15;9.03;;;7.70;;
8909;SDS011;4490;49.072;8.804;2023-06-26T02:25:41;9.60;;;8.30;;
8909;SDS011;4490;49.072;8.804;2023-06-26T02:28:06;7.90;;;7.20;;
8909;SDS011;4490;49.072;8.804;2023-06-26T02:30:32;9.00;;;7.57;;
8909;SDS011;4490;49.072;8.804;2023-06-26T02:32:57;8.43;;;7.63;;
8909;SDS011;4490;49.072;8.804;2023-06-26T02:35:23;9.80;;;7.20;;
8909;SDS011;4490;49.072;8.804;2023-06-26T02:37:48;8.77;;;7.60;;
8909;SDS011;4490;49.072;8.804;2023-06-26T02:40:14;7.63;;;6.93;;
8909;SDS011;4490;49.072;8.804;2023-06-26T02:42:40;9.03;;;7.60;;
8909;SDS011;4490;49.072;8.804;2023-06-26T02:45:05;8.90;;;7.40;;
8909;SDS011;4490;49.072;8.804;2023-06-26T02:47:31;9.47;;;7.90;;
8909;SDS011;4490;49.072;8.804;2023-06-26T02:49:57;8.63;;;7.80;;
8909;SDS011;4490;49.072;8.804;2023-06-26T02:52:22;9.73;;;8.50;;
8909;SDS011;4490;49.072;8.804;2023-06-26T02:54:48;9.00;;;7.60;;
8909;SDS011;4490;49.072;8.804;2023-06-26T02:57:14;9.00;;;8.10;;
8909;SDS011;4490;49.072;8.804;2023-06-26T02:59:39;9.13;;;8.13;;
8909;SDS011;4490;49.072;8.804;2023-06-26T03:02:05;8.20;;;7.40;;
8909;SDS011;4490;49.072;8.804;2023-06-26T03:04:31;7.43;;;6.73;;
8909;SDS011;4490;49.072;8.804;2023-06-26T03:06:56;9.13;;;7.83;;
8909;SDS011;4490;49.072;8.804;2023-06-26T03:09:22;8.83;;;7.97;;
8909;SDS011;4490;49.072;8.804;2023-06-26T03:11:48;9.23;;;7.20;;
8909;SDS011;4490;49.072;8.804;2023-06-26T03:14:14;9.13;;;7.63;;
8909;SDS011;4490;49.072;8.804;2023-06-26T03:16:40;8.53;;;7.73;;
8909;SDS011;4490;49.072;8.804;2023-06-26T03:19:05;8.33;;;7.53;;
8909;SDS011;4490;49.072;8.804;2023-06-26T03:21:32;9.80;;;8.00;;
8909;SDS011;4490;49.072;8.804;2023-06-26T03:23:57;8.70;;;7.57;;
8909;SDS011;4490;49.072;8.804;2023-06-26T03:26:23;8.67;;;7.77;;
8909;SDS011;4490;49.072;8.804;2023-06-26T03:28:52;8.03;;;7.23;;
8909;SDS011;4490;49.072;8.804;2023-06-26T03:31:18;9.03;;;8.07;;
8909;SDS011;4490;49.072;8.804;2023-06-26T03:33:44;8.73;;;7.80;;
8909;SDS011;4490;49.072;8.804;2023-06-26T03:36:10;8.80;;;7.90;;
8909;SDS011;4490;49.072;8.804;2023-06-26T03:38:36;9.60;;;8.60;;
8909;SDS011;4490;49.072;8.804;2023-06-26T03:41:01;10.63;;;8.03;;
8909;SDS011;4490;49.072;8.804;2023-06-26T03:43:27;9.60;;;7.83;;
8909;SDS011;4490;49.072;8.804;2023-06-26T03:45:53;8.47;;;7.30;;
8909;SDS011;4490;49.072;8.804;2023-06-26T03:48:19;9.73;;;7.77;;
8909;SDS011;4490;49.072;8.804;2023-06-26T03:50:44;8.17;;;7.43;;
8909;SDS011;4490;49.072;8.804;2023-06-26T03:53:10;9.03;;;8.13;;
8909;SDS011;4490;49.072;8.804;2023-06-26T03:55:36;8.83;;;7.93;;
8909;SDS011;4490;49.072;8.804;2023-06-26T03:58:03;9.77;;;8.47;;
8909;SDS011;4490;49.072;8.804;2023-06-26T04:00:29;10.30;;;8.13;;
8909;SDS011;4490;49.072;8.804;2023-06-26T04:02:55;9.00;;;7.90;;
8909;SDS011;4490;49.072;8.804;2023-06-26T04:05:21;9.10;;;8.20;;
8909;SDS011;4490;49.072;8.804;2023-06-26T04:07:49;9.30;;;8.33;;
8909;SDS011;4490;49.072;8.804;2023-06-26T04:10:16;8.40;;;7.60;;
8909;SDS011;4490;49.072;8.804;2023-06-26T04:12:41;9.20;;;8.30;;
8909;SDS011;4490;49.072;8.804;2023-06-26T04:15:07;8.67;;;7.77;;
8909;SDS011;4490;49.072;8.804;2023-06-26T04:17:33;8.60;;;7.67;;
8909;SDS011;4490;49.072;8.804;2023-06-26T04:19:59;9.40;;;7.67;;
8909;SDS011;4490;49.072;8.804;2023-06-26T04:22:24;9.17;;;8.17;;
8909;SDS011;4490;49.072;8.804;2023-06-26T04:24:50;10.07;;;8.50;;
8909;SDS011;4490;49.072;8.804;2023-06-26T04:27:16;10.30;;;7.67;;
8909;SDS011;4490;49.072;8.804;2023-06-26T04:29:42;8.87;;;8.00;;
8909;SDS011;4490;49.072;8.804;2023-06-26T04:32:08;9.27;;;8.00;;
8909;SDS011;4490;49.072;8.804;2023-06-26T04:34:33;8.60;;;7.70;;
8909;SDS011;4490;49.072;8.804;2023-06-26T04:37:01;9.67;;;8.67;;
8909;SDS011;4490;49.072;8.804;2023-06-26T04:39:29;11.37;;;8.90;;
8909;SDS011;4490;49.072;8.804;2023-06-26T04:41:55;9.67;;;8.37;;
8909;SDS011;4490;49.072;8.804;2023-06-26T04:44:21;12.73;;;9.60;;
8909;SDS011;4490;49.072;8.804;2023-06-26T04:46:46;11.87;;;9.20;;
8909;SDS011;4490;49.072;8.804;2023-06-26T04:49:12;11.60;;;9.90;;
8909;SDS011;4490;49.072;8.804;2023-06-26T04:51:38;12.10;;;10.03;;
8909;SDS011;4490;49.072;8.804;2023-06-26T04:54:08;13.30;;;10.17;;
8909;SDS011;4490;49.072;8.804;2023-06-26T04:56:35;12.47;;;10.30;;
8909;SDS011;4490;49.072;8.804;2023-06-26T04:59:01;10.33;;;9.33;;
8909;SDS011;4490;49.072;8.804;2023-06-26T05:01:28;11.83;;;9.87;;
8909;SDS011;4490;49.072;8.804;2023-06-26T05:03:58;12.57;;;9.47;;
8909;SDS011;4490;49.072;8.804;2023-06-26T05:06:24;10.43;;;9.33;;
8909;SDS011;4490;49.072;8.804;2023-06-26T05:08:49;12.43;;;9.67;;
8909;SDS011;4490;49.072;8.804;2023-06-26T05:11:15;12.73;;;8.93;;
8909;SDS011;4490;49.072;8.804;2023-06-26T05:13:41;11.87;;;8.53;;
8909;SDS011;4490;49.072;8.804;2023-06-26T05:16:07;10.60;;;8.90;;
8909;SDS011;4490;49.072;8.804;2023-06-26T05:18:34;10.60;;;9.20;;
8909;SDS011;4490;49.072;8.804;2023-06-26T05:21:00;12.33;;;9.93;;
8909;SDS011;4490;49.072;8.804;2023-06-26T05:23:26;10.83;;;9.00;;
8909;SDS011;4490;49.072;8.804;2023-06-26T05:25:53;10.80;;;9.63;;
8909;SDS011;4490;49.072;8.804;2023-06-26T05:28:19;11.87;;;9.73;;
8909;SDS011;4490;49.072;8.804;2023-06-26T05:30:45;11.73;;;9.50;;
8909;SDS011;4490;49.072;8.804;2023-06-26T05:33:12;11.77;;;10.47;;
8909;SDS011;4490;49.072;8.804;2023-06-26T05:35:39;10.73;;;9.63;;
8909;SDS011;4490;49.072;8.804;2023-06-26T05:38:07;9.93;;;8.83;;
8909;SDS011;4490;49.072;8.804;2023-06-26T05:40:33;8.73;;;7.83;;
8909;SDS011;4490;49.072;8.804;2023-06-26T05:42:59;9.40;;;7.90;;
8909;SDS011;4490;49.072;8.804;2023-06-26T05:45:25;9.70;;;8.47;;
8909;SDS011;4490;49.072;8.804;2023-06-26T05:47:51;8.93;;;8.03;;
8909;SDS011;4490;49.072;8.804;2023-06-26T05:50:17;9.60;;;7.90;;
8909;SDS011;4490;49.072;8.804;2023-06-26T05:52:43;9.40;;;8.10;;
8909;SDS011;4490;49.072;8.804;2023-06-26T05:55:09;9.40;;;7.97;;
8909;SDS011;4490;49.072;8.804;2023-06-26T05:57:36;9.17;;;8.13;;
8909;SDS011;4490;49.072;8.804;2023-06-26T06:00:02;10.10;;;7.43;;
8909;SDS011;4490;49.072;8.804;2023-06-26T06:02:30;11.20;;;8.27;;
8909;SDS011;4490;49.072;8.804;2023-06-26T06:04:56;9.53;;;7.67;;
8909;SDS011;4490;49.072;8.804;2023-06-26T06:07:21;9.33;;;8.33;;
8909;SDS011;4490;49.072;8.804;2023-06-26T06:09:47;8.43;;;7.63;;
8909;SDS011;4490;49.072;8.804;2023-06-26T06:12:13;9.07;;;8.15;;
8909;SDS011;4490;49.072;8.804;2023-06-26T06:14:38;8.52;;;7.57;;
8909;SDS011;4490;49.072;8.804;2023-06-26T06:17:04;8.65;;;7.68;;
8909;SDS011;4490;49.072;8.804;2023-06-26T06:19:29;9.82;;;8.13;;
8909;SDS011;4490;49.072;8.804;2023-06-26T06:21:55;8.85;;;7.55;;
8909;SDS011;4490;49.072;8.804;2023-06-26T06:24:20;8.82;;;7.93;;
8909;SDS011;4490;49.072;8.804;2023-06-26T06:26:46;8.18;;;7.32;;
8909;SDS011;4490;49.072;8.804;2023-06-26T06:29:12;8.63;;;7.63;;
8909;SDS011;4490;49.072;8.804;2023-06-26T06:31:37;8.98;;;8.07;;
8909;SDS011;4490;49.072;8.804;2023-06-26T06:34:03;8.95;;;8.05;;
8909;SDS011;4490;49.072;8.804;2023-06-26T06:36:28;8.32;;;7.28;;
8909;SDS011;4490;49.072;8.804;2023-06-26T06:38:54;8.60;;;7.78;;
8909;SDS011;4490;49.072;8.804;2023-06-26T06:41:20;8.45;;;7.60;;
8909;SDS011;4490;49.072;8.804;2023-06-26T06:43:45;8.75;;;7.85;;
8909;SDS011;4490;49.072;8.804;2023-06-26T06:46:11;9.55;;;8.55;;
8909;SDS011;4490;49.072;8.804;2023-06-26T06:48:37;8.73;;;7.82;;
8909;SDS011;4490;49.072;8.804;2023-06-26T06:51:02;8.93;;;7.93;;
8909;SDS011;4490;49.072;8.804;2023-06-26T06:53:28;8.95;;;8.05;;
8909;SDS011;4490;49.072;8.804;2023-06-26T06:55:55;10.20;;;8.07;;
8909;SDS011;4490;49.072;8.804;2023-06-26T06:58:20;8.57;;;7.68;;
8909;SDS011;4490;49.072;8.804;2023-06-26T07:00:47;8.30;;;7.45;;
8909;SDS011;4490;49.072;8.804;2023-06-26T07:03:13;8.30;;;7.22;;
8909;SDS011;4490;49.072;8.804;2023-06-26T07:05:40;9.30;;;7.70;;
8909;SDS011;4490;49.072;8.804;2023-06-26T07:08:07;8.38;;;7.43;;
8909;SDS011;4490;49.072;8.804;2023-06-26T07:10:32;8.43;;;7.20;;
8909;SDS011;4490;49.072;8.804;2023-06-26T07:12:58;8.80;;;6.97;;
8909;SDS011;4490;49.072;8.804;2023-06-26T07:15:23;8.32;;;7.10;;
8909;SDS011;4490;49.072;8.804;2023-06-26T07:17:49;8.70;;;7.50;;
8909;SDS011;4490;49.072;8.804;2023-06-26T07:20:14;7.90;;;7.10;;
8909;SDS011;4490;49.072;8.804;2023-06-26T07:22:41;8.43;;;7.40;;
8909;SDS011;4490;49.072;8.804;2023-06-26T07:25:07;7.43;;;6.72;;
8909;SDS011;4490;49.072;8.804;2023-06-26T07:27:34;7.82;;;7.03;;
8909;SDS011;4490;49.072;8.804;2023-06-26T07:30:00;8.32;;;6.90;;
8909;SDS011;4490;49.072;8.804;2023-06-26T07:32:27;8.38;;;6.53;;
8909;SDS011;4490;49.072;8.804;2023-06-26T07:34:52;6.75;;;6.15;;
8909;SDS011;4490;49.072;8.804;2023-06-26T07:37:18;7.22;;;6.53;;
8909;SDS011;4490;49.072;8.804;2023-06-26T07:39:43;6.80;;;6.15;;
8909;SDS011;4490;49.072;8.804;2023-06-26T07:42:09;6.70;;;6.10;;
8909;SDS011;4490;49.072;8.804;2023-06-26T07:44:34;6.90;;;6.20;;
8909;SDS011;4490;49.072;8.804;2023-06-26T07:47:00;6.70;;;6.10;;
8909;SDS011;4490;49.072;8.804;2023-06-26T07:49:26;6.93;;;6.05;;
8909;SDS011;4490;49.072;8.804;2023-06-26T07:51:51;8.48;;;6.68;;
8909;SDS011;4490;49.072;8.804;2023-06-26T07:54:17;6.80;;;6.20;;
8909;SDS011;4490;49.072;8.804;2023-06-26T07:56:52;6.65;;;5.97;;
8909;SDS011;4490;49.072;8.804;2023-06-26T07:59:19;7.43;;;6.10;;
8909;SDS011;4490;49.072;8.804;2023-06-26T08:01:46;7.55;;;6.03;;
8909;SDS011;4490;49.072;8.804;2023-06-26T08:04:11;7.20;;;6.30;;
8909;SDS011;4490;49.072;8.804;2023-06-26T08:06:37;6.72;;;6.13;;
8909;SDS011;4490;49.072;8.804;2023-06-26T08:09:05;8.40;;;6.05;;
8909;SDS011;4490;49.072;8.804;2023-06-26T08:11:34;6.70;;;6.10;;
8909;SDS011;4490;49.072;8.804;2023-06-26T08:13:59;6.10;;;5.50;;
8909;SDS011;4490;49.072;8.804;2023-06-26T08:16:25;6.72;;;5.80;;
8909;SDS011;4490;49.072;8.804;2023-06-26T08:18:51;6.70;;;6.10;;
8909;SDS011;4490;49.072;8.804;2023-06-26T08:21:16;7.05;;;5.63;;
8909;SDS011;4490;49.072;8.804;2023-06-26T08:23:42;6.35;;;5.72;;
8909;SDS011;4490;49.072;8.804;2023-06-26T08:26:08;6.18;;;5.63;;
8909;SDS011;4490;49.072;8.804;2023-06-26T08:28:33;7.00;;;6.32;;
8909;SDS011;4490;49.072;8.804;2023-06-26T08:30:59;6.32;;;5.72;;
8909;SDS011;4490;49.072;8.804;2023-06-26T08:33:25;6.88;;;6.07;;
8909;SDS011;4490;49.072;8.804;2023-06-26T08:35:50;6.40;;;5.90;;
8909;SDS011;4490;49.072;8.804;2023-06-26T08:38:16;6.78;;;6.18;;
8909;SDS011;4490;49.072;8.804;2023-06-26T08:40:41;6.60;;;5.95;;
8909;SDS011;4490;49.072;8.804;2023-06-26T08:43:07;7.25;;;5.82;;
8909;SDS011;4490;49.072;8.804;2023-06-26T08:45:33;7.47;;;6.10;;
8909;SDS011;4490;49.072;8.804;2023-06-26T08:47:59;7.20;;;6.50;;
8909;SDS011;4490;49.072;8.804;2023-06-26T08:50:27;6.95;;;6.13;;
8909;SDS011;4490;49.072;8.804;2023-06-26T08:53:08;7.47;;;6.28;;
8909;SDS011;4490;49.072;8.804;2023-06-26T08:55:41;7.00;;;6.38;;
8909;SDS011;4490;49.072;8.804;2023-06-26T08:58:08;6.72;;;5.85;;
8909;SDS011;4490;49.072;8.804;2023-06-26T09:00:36;9.30;;;5.97;;
8909;SDS011;4490;49.072;8.804;2023-06-26T09:03:03;7.97;;;6.05;;
8909;SDS011;4490;49.072;8.804;2023-06-26T09:05:28;7.47;;;6.65;;
8909;SDS011;4490;49.072;8.804;2023-06-26T09:07:56;6.38;;;5.78;;
8909;SDS011;4490;49.072;8.804;2023-06-26T09:10:22;7.22;;;6.32;;
8909;SDS011;4490;49.072;8.804;2023-06-26T09:12:48;7.00;;;6.38;;
8909;SDS011;4490;49.072;8.804;2023-06-26T09:15:14;8.00;;;6.68;;
8909;SDS011;4490;49.072;8.804;2023-06-26T09:17:40;14.73;;;6.38;;
8909;SDS011;4490;49.072;8.804;2023-06-26T09:20:07;7.38;;;6.68;;
8909;SDS011;4490;49.072;8.804;2023-06-26T09:22:35;12.60;;;6.88;;
8909;SDS011;4490;49.072;8.804;2023-06-26T09:25:03;7.70;;;6.90;;
8909;SDS011;4490;49.072;8.804;2023-06-26T09:27:32;7.53;;;6.90;;
8909;SDS011;4490;49.072;8.804;2023-06-26T09:29:59;7.78;;;7.00;;
8909;SDS011;4490;49.072;8.804;2023-06-26T09:32:24;7.72;;;6.95;;
8909;SDS011;4490;49.072;8.804;2023-06-26T09:34:51;9.20;;;7.50;;
8909;SDS011;4490;49.072;8.804;2023-06-26T09:37:17;7.15;;;6.50;;
8909;SDS011;4490;49.072;8.804;2023-06-26T09:39:43;7.88;;;7.07;;
8909;SDS011;4490;49.072;8.804;2023-06-26T09:42:09;9.88;;;6.72;;
8909;SDS011;4490;49.072;8.804;2023-06-26T09:44:35;7.35;;;6.65;;
8909;SDS011;4490;49.072;8.804;2023-06-26T09:47:01;8.13;;;6.95;;
8909;SDS011;4490;49.072;8.804;2023-06-26T09:49:29;7.18;;;6.55;;
8909;SDS011;4490;49.072;8.804;2023-06-26T09:51:54;9.48;;;6.93;;
8909;SDS011;4490;49.072;8.804;2023-06-26T09:54:21;8.05;;;7.22;;
8909;SDS011;4490;49.072;8.804;2023-06-26T09:56:48;7.63;;;6.93;;
8909;SDS011;4490;49.072;8.804;2023-06-26T09:59:14;7.57;;;6.88;;
8909;SDS011;4490;49.072;8.804;2023-06-26T10:01:41;8.38;;;7.10;;
8909;SDS011;4490;49.072;8.804;2023-06-26T10:04:09;7.50;;;6.80;;
8909;SDS011;4490;49.072;8.804;2023-06-26T10:06:41;7.47;;;6.78;;
8909;SDS011;4490;49.072;8.804;2023-06-26T10:09:11;7.18;;;6.43;;
8909;SDS011;4490;49.072;8.804;2023-06-26T10:14:35;6.63;;;6.03;;
8909;SDS011;4490;49.072;8.804;2023-06-26T10:17:09;7.88;;;6.80;;
8909;SDS011;4490;49.072;8.804;2023-06-26T10:19:37;8.00;;;6.10;;
8909;SDS011;4490;49.072;8.804;2023-06-26T10:22:04;7.35;;;6.65;;
8909;SDS011;4490;49.072;8.804;2023-06-26T10:24:31;7.18;;;6.53;;
8909;SDS011;4490;49.072;8.804;2023-06-26T10:27:01;7.53;;;6.78;;
8909;SDS011;4490;49.072;8.804;2023-06-26T10:29:32;6.20;;;5.60;;
8909;SDS011;4490;49.072;8.804;2023-06-26T10:31:59;8.35;;;6.47;;
8909;SDS011;4490;49.072;8.804;2023-06-26T10:34:27;6.60;;;5.85;;
8909;SDS011;4490;49.072;8.804;2023-06-26T10:37:02;8.75;;;6.70;;
8909;SDS011;4490;49.072;8.804;2023-06-26T10:40:11;7.18;;;6.32;;
8909;SDS011;4490;49.072;8.804;2023-06-26T10:42:33;7.25;;;6.55;;
8909;SDS011;4490;49.072;8.804;2023-06-26T10:45:10;7.28;;;6.55;;
8909;SDS011;4490;49.072;8.804;2023-06-26T10:47:40;8.60;;;6.78;;
8909;SDS011;4490;49.072;8.804;2023-06-26T10:50:23;8.77;;;7.18;;
8909;SDS011;4490;49.072;8.804;2023-06-26T10:53:07;9.10;;;6.82;;
8909;SDS011;4490;49.072;8.804;2023-06-26T10:55:33;6.72;;;6.13;;
8909;SDS011;4490;49.072;8.804;2023-06-26T10:57:58;6.88;;;6.28;;
8909;SDS011;4490;49.072;8.804;2023-06-26T11:00:24;7.72;;;6.65;;
8909;SDS011;4490;49.072;8.804;2023-06-26T11:02:50;7.95;;;6.45;;
8909;SDS011;4490;49.072;8.804;2023-06-26T11:08:04;8.57;;;6.88;;
8909;SDS011;4490;49.072;8.804;2023-06-26T11:10:39;8.68;;;6.75;;
8909;SDS011;4490;49.072;8.804;2023-06-26T11:13:15;10.75;;;6.68;;
8909;SDS011;4490;49.072;8.804;2023-06-26T11:15:43;8.18;;;6.38;;
8909;SDS011;4490;49.072;8.804;2023-06-26T11:18:12;8.70;;;6.90;;
8909;SDS011;4490;49.072;8.804;2023-06-26T11:20:38;7.53;;;6.72;;
8909;SDS011;4490;49.072;8.804;2023-06-26T11:23:03;9.13;;;6.45;;
8909;SDS011;4490;49.072;8.804;2023-06-26T11:25:34;7.80;;;6.70;;
8909;SDS011;4490;49.072;8.804;2023-06-26T11:28:00;7.57;;;6.88;;
8909;SDS011;4490;49.072;8.804;2023-06-26T11:30:26;7.40;;;6.70;;
8909;SDS011;4490;49.072;8.804;2023-06-26T11:32:52;7.93;;;7.00;;
8909;SDS011;4490;49.072;8.804;2023-06-26T11:35:24;7.93;;;7.03;;
8909;SDS011;4490;49.072;8.804;2023-06-26T11:37:58;7.93;;;6.75;;
8909;SDS011;4490;49.072;8.804;2023-06-26T11:40:27;6.95;;;6.35;;
8909;SDS011;4490;49.072;8.804;2023-06-26T11:42:55;10.93;;;6.68;;
8909;SDS011;4490;49.072;8.804;2023-06-26T11:45:22;7.85;;;7.05;;
8909;SDS011;4490;49.072;8.804;2023-06-26T11:47:47;7.47;;;6.63;;
8909;SDS011;4490;49.072;8.804;2023-06-26T11:50:15;7.25;;;6.65;;
8909;SDS011;4490;49.072;8.804;2023-06-26T11:52:44;6.80;;;6.20;;
8909;SDS011;4490;49.072;8.804;2023-06-26T11:55:10;8.48;;;6.50;;
8909;SDS011;4490;49.072;8.804;2023-06-26T11:57:36;7.60;;;6.90;;
8909;SDS011;4490;49.072;8.804;2023-06-26T12:00:15;9.60;;;6.82;;
8909;SDS011;4490;49.072;8.804;2023-06-26T12:02:42;7.32;;;6.18;;
8909;SDS011;4490;49.072;8.804;2023-06-26T12:05:09;8.32;;;6.63;;
8909;SDS011;4490;49.072;8.804;2023-06-26T12:07:35;6.55;;;5.95;;
8909;SDS011;4490;49.072;8.804;2023-06-26T12:10:01;7.40;;;6.60;;
8909;SDS011;4490;49.072;8.804;2023-06-26T12:12:29;8.10;;;6.57;;
8909;SDS011;4490;49.072;8.804;2023-06-26T12:14:56;8.35;;;6.47;;
8909;SDS011;4490;49.072;8.804;2023-06-26T12:17:22;6.47;;;5.88;;
8909;SDS011;4490;49.072;8.804;2023-06-26T12:19:50;7.07;;;6.38;;
8909;SDS011;4490;49.072;8.804;2023-06-26T12:22:16;7.20;;;6.55;;
8909;SDS011;4490;49.072;8.804;2023-06-26T12:24:42;7.78;;;6.38;;
8909;SDS011;4490;49.072;8.804;2023-06-26T12:27:10;6.43;;;5.68;;
8909;SDS011;4490;49.072;8.804;2023-06-26T12:29:37;7.20;;;6.50;;
8909;SDS011;4490;49.072;8.804;2023-06-26T12:32:07;6.28;;;5.68;;
8909;SDS011;4490;49.072;8.804;2023-06-26T12:34:35;6.45;;;5.88;;
8909;SDS011;4490;49.072;8.804;2023-06-26T12:37:03;6.68;;;5.75;;
8909;SDS011;4490;49.072;8.804;2023-06-26T12:39:38;6.55;;;5.85;;
8909;SDS011;4490;49.072;8.804;2023-06-26T12:42:23;6.95;;;5.72;;
8909;SDS011;4490;49.072;8.804;2023-06-26T12:44:52;6.53;;;5.65;;
8909;SDS011;4490;49.072;8.804;2023-06-26T12:47:25;6.93;;;5.60;;
8909;SDS011;4490;49.072;8.804;2023-06-26T12:49:51;5.55;;;5.03;;
8909;SDS011;4490;49.072;8.804;2023-06-26T12:52:17;7.72;;;5.45;;
8909;SDS011;4490;49.072;8.804;2023-06-26T12:54:44;5.97;;;5.47;;
8909;SDS011;4490;49.072;8.804;2023-06-26T12:57:11;6.40;;;5.65;;
8909;SDS011;4490;49.072;8.804;2023-06-26T12:59:41;7.38;;;5.32;;
8909;SDS011;4490;49.072;8.804;2023-06-26T13:02:07;7.35;;;4.82;;
8909;SDS011;4490;49.072;8.804;2023-06-26T13:04:33;5.65;;;5.13;;
8909;SDS011;4490;49.072;8.804;2023-06-26T13:06:59;6.05;;;5.10;;
8909;SDS011;4490;49.072;8.804;2023-06-26T13:09:25;5.95;;;5.05;;
8909;SDS011;4490;49.072;8.804;2023-06-26T13:11:51;5.25;;;4.45;;
8909;SDS011;4490;49.072;8.804;2023-06-26T13:14:17;4.57;;;4.18;;
8909;SDS011;4490;49.072;8.804;2023-06-26T13:16:43;7.03;;;4.40;;
8909;SDS011;4490;49.072;8.804;2023-06-26T13:19:09;5.10;;;4.10;;
8909;SDS011;4490;49.072;8.804;2023-06-26T13:21:35;4.75;;;3.90;;
8909;SDS011;4490;49.072;8.804;2023-06-26T13:24:01;7.40;;;4.05;;
8909;SDS011;4490;49.072;8.804;2023-06-26T13:26:29;4.63;;;4.20;;
8909;SDS011;4490;49.072;8.804;2023-06-26T13:28:55;4.50;;;3.92;;
8909;SDS011;4490;49.072;8.804;2023-06-26T13:31:21;4.20;;;3.90;;
8909;SDS011;4490;49.072;8.804;2023-06-26T13:33:47;6.25;;;4.30;;
8909;SDS011;4490;49.072;8.804;2023-06-26T13:36:14;4.60;;;4.18;;
8909;SDS011;4490;49.072;8.804;2023-06-26T13:38:43;5.28;;;4.22;;
8909;SDS011;4490;49.072;8.804;2023-06-26T13:41:10;4.60;;;4.03;;
8909;SDS011;4490;49.072;8.804;2023-06-26T13:43:36;7.85;;;4.13;;
8909;SDS011;4490;49.072;8.804;2023-06-26T13:46:02;4.53;;;4.10;;
8909;SDS011;4490;49.072;8.804;2023-06-26T13:48:28;5.00;;;3.95;;
8909;SDS011;4490;49.072;8.804;2023-06-26T13:50:54;5.05;;;4.35;;
8909;SDS011;4490;49.072;8.804;2023-06-26T13:53:21;5.40;;;4.03;;
8909;SDS011;4490;49.072;8.804;2023-06-26T13:55:46;6.38;;;4.15;;
8909;SDS011;4490;49.072;8.804;2023-06-26T13:58:12;5.15;;;4.28;;
8909;SDS011;4490;49.072;8.804;2023-06-26T14:00:38;6.45;;;4.38;;
8909;SDS011;4490;49.072;8.804;2023-06-26T14:03:05;6.55;;;4.35;;
8909;SDS011;4490;49.072;8.804;2023-06-26T14:05:34;4.55;;;4.13;;
8909;SDS011;4490;49.072;8.804;2023-06-26T14:08:04;6.47;;;4.05;;
8909;SDS011;4490;49.072;8.804;2023-06-26T14:10:32;5.95;;;3.88;;
8909;SDS011;4490;49.072;8.804;2023-06-26T14:13:01;6.82;;;4.13;;
8909;SDS011;4490;49.072;8.804;2023-06-26T14:15:28;5.10;;;4.55;;
8909;SDS011;4490;49.072;8.804;2023-06-26T14:17:53;7.18;;;5.18;;
8909;SDS011;4490;49.072;8.804;2023-06-26T14:20:20;7.07;;;4.53;;
8909;SDS011;4490;49.072;8.804;2023-06-26T14:22:47;5.80;;;4.90;;
8909;SDS011;4490;49.072;8.804;2023-06-26T14:25:13;5.65;;;4.60;;
8909;SDS011;4490;49.072;8.804;2023-06-26T14:27:40;6.13;;;5.53;;
8909;SDS011;4490;49.072;8.804;2023-06-26T14:30:06;6.07;;;5.15;;
8909;SDS011;4490;49.072;8.804;2023-06-26T14:32:32;8.02;;;5.57;;
8909;SDS011;4490;49.072;8.804;2023-06-26T14:34:58;7.18;;;5.43;;
8909;SDS011;4490;49.072;8.804;2023-06-26T14:37:28;7.10;;;6.40;;
8909;SDS011;4490;49.072;8.804;2023-06-26T14:39:55;6.88;;;6.18;;
8909;SDS011;4490;49.072;8.804;2023-06-26T14:42:20;7.50;;;6.80;;
8909;SDS011;4490;49.072;8.804;2023-06-26T14:44:46;10.07;;;7.88;;
8909;SDS011;4490;49.072;8.804;2023-06-26T14:47:15;8.57;;;7.40;;
8909;SDS011;4490;49.072;8.804;2023-06-26T14:49:41;8.68;;;7.63;;
8909;SDS011;4490;49.072;8.804;2023-06-26T14:52:07;9.02;;;7.28;;
8909;SDS011;4490;49.072;8.804;2023-06-26T14:54:33;7.82;;;6.95;;
8909;SDS011;4490;49.072;8.804;2023-06-26T14:57:01;8.82;;;7.65;;
8909;SDS011;4490;49.072;8.804;2023-06-26T14:59:28;11.15;;;7.63;;
8909;SDS011;4490;49.072;8.804;2023-06-26T15:01:53;8.30;;;7.47;;
8909;SDS011;4490;49.072;8.804;2023-06-26T15:04:19;8.48;;;7.47;;
8909;SDS011;4490;49.072;8.804;2023-06-26T15:06:45;9.70;;;7.18;;
8909;SDS011;4490;49.072;8.804;2023-06-26T15:09:10;8.88;;;7.97;;
8909;SDS011;4490;49.072;8.804;2023-06-26T15:11:36;8.45;;;7.32;;
8909;SDS011;4490;49.072;8.804;2023-06-26T15:14:03;8.32;;;7.05;;
8909;SDS011;4490;49.072;8.804;2023-06-26T15:16:28;7.78;;;6.95;;
8909;SDS011;4490;49.072;8.804;2023-06-26T15:18:54;6.47;;;5.75;;
8909;SDS011;4490;49.072;8.804;2023-06-26T15:21:20;5.75;;;5.20;;
8909;SDS011;4490;49.072;8.804;2023-06-26T15:23:46;6.20;;;5.07;;